Megah Delapan — VRGA4 — position and weather

sailwx.info

Track history (hours):
 
Tides and Currents Weather Stations Pressure Air Temp Water Temp Dewpoint Dewpoint Depression Visibility Wind Speed Wind Dir Waves Ship Positions

Megah Delapan

Last reported at 2017-Sep-20 12:15 UTC. Time now 2017-Sep-26 16:42 UTC.
Position N 01°14' E 103°48'.

Length 120 m; draft 8.2 m.

Type: Cargo ship. MMSI: 477639100.

Date/timePositionNaut miles runAvg speedWind from/ knotsBaromVisibWave heightAir tempDewpointWater temp
2017-Sep-20 12:15N 01°14' E 103°48'0 1.8
2017-Sep-20 11:58N 01°14' E 103°48'27 4.3
2017-Sep-20 05:39N 01°18' E 103°21'311.3
2017-Sep-20 05:23N 01°16' E 103°23'411.1
2017-Sep-20 05:00N 01°14' E 103°27'510.9
2017-Sep-20 04:30N 01°12' E 103°32'510.9
2017-Sep-20 04:00N 01°11' E 103°37'510.1
2017-Sep-20 03:30N 01°09' E 103°42'5 9.9
2017-Sep-20 03:00N 01°10' E 103°47'3 6.4
2017-Sep-20 02:30N 01°13' E 103°48'2 3.0
2017-Sep-20 01:44N 01°15' E 103°49'0 0.0
2017-Sep-20 01:29N 01°15' E 103°49'0 0.1
2017-Sep-20 00:56N 01°15' E 103°49'0 0.1
2017-Sep-20 00:29N 01°15' E 103°49'0 0.0
2017-Sep-19 23:59N 01°15' E 103°49'0 0.0
2017-Sep-19 23:29N 01°15' E 103°49'0 0.0
2017-Sep-19 22:59N 01°15' E 103°49'0 0.1
2017-Sep-19 22:29N 01°15' E 103°49'0 0.2
2017-Sep-19 21:50N 01°15' E 103°49'0 0.2
2017-Sep-19 21:29N 01°15' E 103°49'0 0.1
2017-Sep-19 20:59N 01°15' E 103°49'0 0.4
2017-Sep-19 20:14N 01°15' E 103°48'0 0.8
2017-Sep-19 19:57N 01°15' E 103°48'1 1.2
2017-Sep-19 19:29N 01°15' E 103°48'1 2.1
2017-Sep-19 18:59N 01°15' E 103°49'0 0.0
2017-Sep-19 18:29N 01°15' E 103°49'0 0.0
2017-Sep-19 17:59N 01°15' E 103°49'0 0.0
2017-Sep-19 17:29N 01°15' E 103°49'0 0.0
2017-Sep-19 16:53N 01°15' E 103°49'0 0.2
2017-Sep-19 16:29N 01°15' E 103°49'0 0.0
2017-Sep-19 15:56N 01°15' E 103°49'0 0.0
2017-Sep-19 15:29N 01°15' E 103°49'0 0.0
2017-Sep-19 14:56N 01°15' E 103°49'0 0.0
2017-Sep-19 14:29N 01°15' E 103°49'0 0.1
2017-Sep-19 13:53N 01°15' E 103°49'0 0.0
2017-Sep-19 13:29N 01°15' E 103°49'0 0.0
2017-Sep-19 12:53N 01°15' E 103°49'0 0.0
2017-Sep-19 12:26N 01°15' E 103°49'0 0.1
2017-Sep-19 11:59N 01°15' E 103°49'0 0.0
2017-Sep-19 11:29N 01°15' E 103°49'0 0.1
2017-Sep-19 10:53N 01°15' E 103°49'0 0.0
2017-Sep-19 10:29N 01°15' E 103°49'1 1.4
2017-Sep-19 10:00N 01°15' E 103°48'4 7.5
2017-Sep-19 09:30N 01°17' E 103°45'3 5.1
2017-Sep-19 09:01N 01°18' E 103°43'0 0.1
2017-Sep-19 08:26N 01°19' E 103°43'0 0.0
2017-Sep-19 07:59N 01°19' E 103°43'0 0.0
2017-Sep-19 07:29N 01°19' E 103°43'0 0.1
2017-Sep-19 06:59N 01°19' E 103°43'0 0.0
2017-Sep-19 06:26N 01°19' E 103°43'0 0.1
2017-Sep-19 05:59N 01°19' E 103°43'0 0.0
2017-Sep-19 05:29N 01°19' E 103°43'0 0.0
2017-Sep-19 04:59N 01°19' E 103°43'0 0.0
2017-Sep-19 04:29N 01°19' E 103°43'0 0.0
2017-Sep-19 03:59N 01°18' E 103°43'0 0.0
2017-Sep-19 03:29N 01°18' E 103°43'0 0.0
2017-Sep-19 02:59N 01°19' E 103°43'0 0.0
2017-Sep-19 02:29N 01°19' E 103°43'0 0.0
2017-Sep-19 01:59N 01°19' E 103°43'0 0.0
2017-Sep-19 01:26N 01°19' E 103°43'0 0.1
2017-Sep-19 00:59N 01°19' E 103°43'0 0.1
2017-Sep-19 00:29N 01°18' E 103°43'0 0.0
2017-Sep-18 23:59N 01°19' E 103°43'0 0.0
2017-Sep-18 23:29N 01°19' E 103°43'0 0.0
2017-Sep-18 22:59N 01°19' E 103°43'0 0.8
2017-Sep-18 22:30N 01°18' E 103°43'3 5.4
2017-Sep-18 22:00N 01°16' E 103°45'4 7.5
2017-Sep-18 21:30N 01°13' E 103°48'3 6.5
2017-Sep-18 21:00N 01°12' E 103°51'3 6.0
2017-Sep-18 20:30N 01°14' E 103°53'5 8.6
2017-Sep-18 19:59N 01°15' E 103°58'  
Track history (hours):
 
Tides and Currents Weather Stations Pressure Air Temp Water Temp Dewpoint Dewpoint Depression Visibility Wind Speed Wind Dir Waves Ship Positions

Megah Delapan

Last reported at 2017-Sep-20 12:15 UTC. Time now 2017-Sep-26 16:42 UTC.
Position N 01°14' E 103°48'.

Length 120 m; draft 8.2 m.

Type: Cargo ship. MMSI: 477639100.

Date/timePositionNaut miles runAvg speedWind from/ knotsBaromVisibWave heightAir tempDewpointWater temp
2017-Sep-20 12:15N 01°14' E 103°48'0 1.8
2017-Sep-20 11:58N 01°14' E 103°48'27 4.3
2017-Sep-20 05:39N 01°18' E 103°21'311.3
2017-Sep-20 05:23N 01°16' E 103°23'411.1
2017-Sep-20 05:00N 01°14' E 103°27'510.9
2017-Sep-20 04:30N 01°12' E 103°32'510.9
2017-Sep-20 04:00N 01°11' E 103°37'510.1
2017-Sep-20 03:30N 01°09' E 103°42'5 9.9
2017-Sep-20 03:00N 01°10' E 103°47'3 6.4
2017-Sep-20 02:30N 01°13' E 103°48'2 3.0
2017-Sep-20 01:44N 01°15' E 103°49'0 0.0
2017-Sep-20 01:29N 01°15' E 103°49'0 0.1
2017-Sep-20 00:56N 01°15' E 103°49'0 0.1
2017-Sep-20 00:29N 01°15' E 103°49'0 0.0
2017-Sep-19 23:59N 01°15' E 103°49'0 0.0
2017-Sep-19 23:29N 01°15' E 103°49'0 0.0
2017-Sep-19 22:59N 01°15' E 103°49'0 0.1
2017-Sep-19 22:29N 01°15' E 103°49'0 0.2
2017-Sep-19 21:50N 01°15' E 103°49'0 0.2
2017-Sep-19 21:29N 01°15' E 103°49'0 0.1
2017-Sep-19 20:59N 01°15' E 103°49'0 0.4
2017-Sep-19 20:14N 01°15' E 103°48'0 0.8
2017-Sep-19 19:57N 01°15' E 103°48'1 1.2
2017-Sep-19 19:29N 01°15' E 103°48'1 2.1
2017-Sep-19 18:59N 01°15' E 103°49'0 0.0
2017-Sep-19 18:29N 01°15' E 103°49'0 0.0
2017-Sep-19 17:59N 01°15' E 103°49'0 0.0
2017-Sep-19 17:29N 01°15' E 103°49'0 0.0
2017-Sep-19 16:53N 01°15' E 103°49'0 0.2
2017-Sep-19 16:29N 01°15' E 103°49'0 0.0
2017-Sep-19 15:56N 01°15' E 103°49'0 0.0
2017-Sep-19 15:29N 01°15' E 103°49'0 0.0
2017-Sep-19 14:56N 01°15' E 103°49'0 0.0
2017-Sep-19 14:29N 01°15' E 103°49'0 0.1
2017-Sep-19 13:53N 01°15' E 103°49'0 0.0
2017-Sep-19 13:29N 01°15' E 103°49'0 0.0
2017-Sep-19 12:53N 01°15' E 103°49'0 0.0
2017-Sep-19 12:26N 01°15' E 103°49'0 0.1
2017-Sep-19 11:59N 01°15' E 103°49'0 0.0
2017-Sep-19 11:29N 01°15' E 103°49'0 0.1
2017-Sep-19 10:53N 01°15' E 103°49'0 0.0
2017-Sep-19 10:29N 01°15' E 103°49'1 1.4
2017-Sep-19 10:00N 01°15' E 103°48'4 7.5
2017-Sep-19 09:30N 01°17' E 103°45'3 5.1
2017-Sep-19 09:01N 01°18' E 103°43'0 0.1
2017-Sep-19 08:26N 01°19' E 103°43'0 0.0
2017-Sep-19 07:59N 01°19' E 103°43'0 0.0
2017-Sep-19 07:29N 01°19' E 103°43'0 0.1
2017-Sep-19 06:59N 01°19' E 103°43'0 0.0
2017-Sep-19 06:26N 01°19' E 103°43'0 0.1
2017-Sep-19 05:59N 01°19' E 103°43'0 0.0
2017-Sep-19 05:29N 01°19' E 103°43'0 0.0
2017-Sep-19 04:59N 01°19' E 103°43'0 0.0
2017-Sep-19 04:29N 01°19' E 103°43'0 0.0
2017-Sep-19 03:59N 01°18' E 103°43'0 0.0
2017-Sep-19 03:29N 01°18' E 103°43'0 0.0
2017-Sep-19 02:59N 01°19' E 103°43'0 0.0
2017-Sep-19 02:29N 01°19' E 103°43'0 0.0
2017-Sep-19 01:59N 01°19' E 103°43'0 0.0
2017-Sep-19 01:26N 01°19' E 103°43'0 0.1
2017-Sep-19 00:59N 01°19' E 103°43'0 0.1
2017-Sep-19 00:29N 01°18' E 103°43'0 0.0
2017-Sep-18 23:59N 01°19' E 103°43'0 0.0
2017-Sep-18 23:29N 01°19' E 103°43'0 0.0
2017-Sep-18 22:59N 01°19' E 103°43'0 0.8
2017-Sep-18 22:30N 01°18' E 103°43'3 5.4
2017-Sep-18 22:00N 01°16' E 103°45'4 7.5
2017-Sep-18 21:30N 01°13' E 103°48'3 6.5
2017-Sep-18 21:00N 01°12' E 103°51'3 6.0
2017-Sep-18 20:30N 01°14' E 103°53'5 8.6
2017-Sep-18 19:59N 01°15' E 103°58'  

Dump ship's entire track history